This is the latest recevied weather packets stored in our database for station/object KG4IFE-13. If no packets are shown the sender has not sent any weather packets the latest 10 day(s).
| Time | Temp. | Humidity | Pressure | Rain* | Wind** | Luminosity | Snow |
|---|---|---|---|---|---|---|---|
| 1777669413 | 18.89° C | 48% | 1010.5 hPa | - | - | - | - |
| 1777667588 | 19.44° C | 46% | 1010.9 hPa | - | - | - | - |
| 1777664598 | 19.44° C | 45% | 1011.9 hPa | - | - | - | - |
| 1777663977 | 19.44° C | 46% | 1011.9 hPa | - | - | - | - |
| 1777662472 | 18.89° C | 47% | 1012.4 hPa | - | - | - | - |
| 1777661567 | 18.89° C | 46% | 1012.6 hPa | - | - | - | - |
| 1777660968 | 18.89° C | 46% | 1012.7 hPa | - | - | - | - |
| 1777658859 | 18.89° C | 47% | 1013.3 hPa | - | - | - | - |
| 1777658277 | 18.89° C | 47% | 1013.7 hPa | - | - | - | - |
| 1777657955 | 18.33° C | 47% | 1013.7 hPa | - | - | - | - |
| 1777656753 | 18.33° C | 50% | 1014 hPa | - | - | - | - |
| 1777655547 | 17.78° C | 50% | 1014.5 hPa | - | - | - | - |
| 1777654647 | 17.78° C | 50% | 1014.6 hPa | - | - | - | - |
| 1777653165 | 16.67° C | 51% | 1015 hPa | - | - | - | - |
| 1777651636 | 15.56° C | 54% | 1015.4 hPa | - | - | - | - |
| 1777650431 | 15° C | 54% | 1015.7 hPa | - | - | - | - |
| 1777650129 | 15° C | 54% | 1015.7 hPa | - | - | - | - |
| 1777647431 | 12.78° C | 60% | 1016 hPa | - | - | - | - |
| 1777645614 | 12.22° C | 61% | 1016 hPa | - | - | - | - |
| 1777645314 | 12.22° C | 61% | 1016 hPa | - | - | - | - |
| 1777644440 | 12.22° C | 61% | 1016 hPa | - | - | - | - |
| 1777643808 | 12.22° C | 61% | 1016.2 hPa | - | - | - | - |
| 1777643206 | 12.22° C | 62% | 1016.4 hPa | - | - | - | - |
| 1777642305 | 12.22° C | 63% | 1016.3 hPa | - | - | - | - |
| 1777642002 | 11.67° C | 63% | 1016.3 hPa | - | - | - | - |
* Rain since midnight (hover to see other rain measurements)
** Current wind speed in m/s (hover to see current wind gust speed)